• Join FlightAware (Why Join?)
  • Login
  • US Flag 
02:38PM EDT


 

Airport Tracker/Info


-or-


 

Live Flight TrackerFlight Track Log ✈ UAL109 ✈ 15-Jul-2013 ✈ EGPH / EDI - KEWR

Flight Track Log - Related Links

Times and Time Zones

All times are in EDT time to prevent confusion due to time zone crossing. See the UAL109 flight status page for this flight to view local times or setup timezone preferences in your user account.

Time Position Orientation Groundspeed Altitude Reporting Facility
EDT Latitude Longitude Course Direction KTS MPH feet Rate Location/Type
07:06AM 55.9480 -3.3700 312° West 6 7  Level FlightAware
07:07AM 55.9480 -3.3690 90° East 4 5  Level FlightAware
07:08AM 55.9490 -3.3690 360° North  Level FlightAware
07:09AM 55.9490 -3.3700 270° West  Level FlightAware
07:12AM 55.9779 -3.7675 281° West  Level FlightAware Approximate
07:13AM 56.0001 -3.9581 282° West  Level FlightAware Approximate
07:13AM 55.9490 -3.3710 282° West  Level FlightAware
07:13AM 55.9490 -3.3700 90° East 13 15  Level FlightAware
07:14AM 55.9500 -3.3680 48° Northeast 15 17  Level FlightAware
07:14AM 55.9510 -3.3640 66° East 16 18 60 Level FlightAware
07:14AM 55.9520 -3.3630 29° Northeast 16 18 60 Level FlightAware
07:15AM 55.9540 -3.3590 48° Northeast 12 14 60 Level FlightAware
07:15AM 55.9550 -3.3600 331° Northwest 12 14 60 Level FlightAware
07:16AM 55.9550 -3.3610 270° West 7 8 120 Level FlightAware
07:16AM 55.9550 -3.3620 270° West 38 44 120 Level FlightAware
07:16AM 55.9520 -3.3700 236° Southwest 105 121 300 Level FlightAware
07:17AM 55.9430 -3.3970 239° Southwest 172 198 200 2,100 Climbing FlightAware
07:17AM 55.9310 -3.4320 239° Southwest 163 188 2,000 2,760 Climbing FlightAware
07:18AM 55.9170 -3.4740 239° Southwest 170 196 3,200 1,560 Climbing FlightAware
07:18AM 55.9040 -3.5160 241° Southwest 209 241 3,700 1,200 Climbing FlightAware
07:19AM 55.9020 -3.5420 262° West 226 260 4,100 1,560 Climbing FlightAware
07:19AM 55.8960 -3.6010 260° West 259 298 4,900 1,380 Climbing FlightAware
07:20AM 55.8900 -3.6580 259° West 294 338 5,400 1,200 Climbing FlightAware
07:20AM 55.8830 -3.7300 260° West 326 375 6,000 1,980 Climbing FlightAware
07:21AM 55.8721 -3.8382 260° West 370 426 7,700 2,580 Climbing FlightAware UK
07:21AM 55.8720 -3.8410 260° West 351 404 7,700 3,000 Level FlightAware
07:21AM 55.8630 -3.9270 259° West 358 412 9,200 2,700 Climbing FlightAware
07:22AM 55.8480 -4.0450 257° West 366 421 10,900 2,400 Climbing FlightAware
07:23AM 55.8280 -4.1570 252° West 377 434 12,500 2,220 Climbing FlightAware
07:23AM 55.8030 -4.2790 250° West 388 447 13,900 2,100 Climbing FlightAware
07:24AM 55.7770 -4.4030 250° West 396 456 15,300 2,040 Climbing FlightAware
07:25AM 55.7510 -4.5310 250° West 402 463 16,700 2,040 Climbing FlightAware
07:25AM 55.7330 -4.6210 250° West 404 465 17,800 1,980 Climbing FlightAware
07:26AM 55.7040 -4.7670 251° West 413 475 19,200 1,800 Climbing FlightAware
07:27AM 55.6760 -4.9020 250° West 420 483 20,500 1,620 Climbing FlightAware
07:27AM 55.6530 -5.0110 250° West 428 493 21,300 1,500 Climbing FlightAware
07:28AM 55.6250 -5.1460 250° West 435 501 22,400 1,440 Climbing FlightAware
07:29AM 55.5917 -5.2981 250° West 472 543 23,500 660 Climbing FlightAware UK
07:29AM 55.5850 -5.3350 250° West 442 509 23,100 1,500 Descending FlightAware
07:30AM 55.5530 -5.4920 250° West 451 519 24,800 1,920 Climbing FlightAware
07:30AM 55.5269 -5.6052 250° West 488 562 25,700 1,440 Climbing FlightAware UK
07:30AM 55.5200 -5.6460 250° West 455 524 25,900 1,380 Climbing FlightAware
07:31AM 55.4959 -5.7499 250° West 490 564 26,700 1,500 Climbing FlightAware UK
07:31AM 55.4900 -5.7830 250° West 454 522 26,900 1,980 Climbing FlightAware
07:31AM 55.4695 -5.8731 250° West 484 557 27,900 1,920 Climbing FlightAware UK
07:32AM 55.4610 -5.9190 250° West 448 516 28,200 1,740 Climbing FlightAware
07:32AM 55.4340 -6.0420 249° West 445 512 29,200 1,560 Climbing FlightAware
07:33AM 55.4127 -6.1342 249° West 478 550 30,000 1,260 Climbing FlightAware UK
07:33AM 55.4050 -6.1750 249° West 443 510 30,100 1,620 Climbing FlightAware
07:34AM 55.3710 -6.3270 249° West 437 503 31,400 1,560 Climbing FlightAware
07:34AM 55.3390 -6.4684 249° West 470 541 32,600 1,380 Climbing FlightAware UK
07:35AM 55.3310 -6.5080 249° West 430 495 32,700 1,320 Climbing FlightAware
07:35AM 55.2980 -6.6550 249° West 426 490 33,700 900 Climbing FlightAware
07:36AM 55.2742 -6.7577 249° West 472 543 34,000 420 Climbing FlightAware UK
07:36AM 55.2680 -6.7870 249° West 432 497 34,000  Level FlightAware
07:36AM 55.2525 -6.8541 249° West 472 543 34,000  Level FlightAware UK
07:37AM 55.2390 -6.9150 249° West 434 499 34,000  Level FlightAware
07:37AM 55.2080 -7.0480 248° West 433 498 34,000  Level FlightAware
07:38AM 55.1865 -7.1444 248° West 470 541 34,000  Level FlightAware UK
07:38AM 55.1750 -7.1920 248° West 432 497 34,000  Level FlightAware
07:39AM 55.1420 -7.3350 248° West 431 496 34,000 480 Level FlightAware
07:39AM 55.1110 -7.4650 247° West 429 494 34,700 780 Climbing FlightAware
07:40AM 55.0935 -7.5451 247° West 468 539 35,000 420 Climbing FlightAware UK
07:40AM 55.0810 -7.5940 247° West 427 491 35,000  Level FlightAware
07:41AM 55.0494 -7.7334 247° West 466 536 35,000  Level FlightAware UK
07:41AM 55.0390 -7.7680 247° West 424 488 35,000  Level FlightAware
07:42AM 55.0120 -7.8850 248° West 423 487 35,000  Level FlightAware
07:42AM 54.9770 -8.0290 247° West 423 487 35,000  Level FlightAware
07:43AM 54.9603 -8.1065 247° West 464 534 35,000  Level FlightAware UK
07:43AM 54.9460 -8.1570 247° West 422 486 35,000  Level FlightAware
07:44AM 54.9190 -8.2660 247° West 422 486 35,000  Level FlightAware
07:44AM 54.8900 -8.3850 247° West 421 484 35,000  Level FlightAware
07:45AM 54.8709 -8.4768 247° West 464 534 35,000  Level FlightAware UK
07:45AM 54.8580 -8.5160 247° West 421 484 35,000  Level FlightAware
07:46AM 54.8240 -8.6540 247° West 418 481 35,000  Level FlightAware
07:46AM 54.7930 -8.7760 246° West 418 481 35,000  Level FlightAware
07:47AM 54.7757 -8.8635 246° West 464 534 35,000  Level FlightAware UK
07:47AM 54.7620 -8.8990 246° West 418 481 35,000  Level FlightAware
07:48AM 54.7200 -9.0650 246° West 419 482 35,000  Level FlightAware
07:49AM 54.6870 -9.1900 245° Southwest 420 483 35,000  Level FlightAware
07:49AM 54.6550 -9.3150 246° West 420 483 35,000  Level FlightAware
07:50AM 54.6190 -9.4550 246° West 421 484 35,000  Level FlightAware
07:51AM 54.5870 -9.5760 246° West 423 487 35,000  Level FlightAware
07:51AM 54.5580 -9.6840 245° Southwest 424 488 35,000  Level FlightAware
07:52AM 54.5220 -9.8210 246° West 424 488 35,000  Level FlightAware
07:53AM 54.4900 -9.9430 246° West 424 488 35,000  Level FlightAware
07:53AM 54.4600 -10.0520 245° Southwest 425 489 35,000  Level FlightAware
07:54AM 54.4240 -10.1870 245° Southwest 425 489 35,000  Level FlightAware
07:55AM 54.3900 -10.3110 245° Southwest 425 489 35,000  Level FlightAware
07:55AM 54.3620 -10.4170 246° West 425 489 35,000  Level FlightAware
07:56AM 54.3240 -10.5560 245° Southwest 426 490 35,000  Level FlightAware
07:57AM 54.2910 -10.6760 245° Southwest 427 491 35,000  Level FlightAware
07:58AM 54.2560 -10.8000 244° Southwest 424 488 35,000  Level FlightAware
07:58AM 54.2190 -10.9350 245° Southwest 425 489 35,000  Level FlightAware
07:59AM 54.1850 -11.0570 245° Southwest 425 489 35,000  Level FlightAware
08:00AM 54.1410 -11.2130 244° Southwest 426 490 35,000  Level FlightAware
08:01AM 54.0720 -11.4560 244° Southwest 425 489 35,000  Level FlightAware
08:02AM 54.0250 -11.6220 244° Southwest 426 490 35,000  Level FlightAware
08:03AM 53.9860 -11.7580 244° Southwest 427 491 35,000  Level FlightAware
08:03AM 53.9540 -11.8670 244° Southwest 427 491 35,000  Level FlightAware
08:04AM 53.9160 -11.9990 244° Southwest 431 496 35,000  Level FlightAware
08:05AM 53.8810 -12.1190 244° Southwest 431 496 35,000  Level FlightAware
08:05AM 53.8420 -12.2510 243° Southwest 430 495 35,000  Level FlightAware
08:06AM 53.7940 -12.4160 244° Southwest 430 495 35,000  Level FlightAware
08:07AM 53.7530 -12.5560 244° Southwest 428 493 35,000  Level FlightAware
08:08AM 53.7230 -12.6540 243° Southwest 427 491 35,000  Level FlightAware
08:09AM 53.6780 -12.8050 243° Southwest 425 489 35,000  Level FlightAware
08:09AM 53.6470 -12.9090 243° Southwest 35,000  Level FlightAware
08:10AM 53.6070 -13.0430 243° Southwest 421 484 35,000  Level FlightAware
08:11AM 53.5690 -13.1670 243° Southwest 420 483 35,000  Level FlightAware
08:11AM 53.5400 -13.2640 243° Southwest 420 483 35,000  Level FlightAware
08:12AM 53.4920 -13.4200 243° Southwest 420 483 35,000  Level FlightAware
08:13AM 53.4590 -13.5250 242° Southwest 420 483 35,000  Level FlightAware
08:14AM 53.4130 -13.6770 243° Southwest 420 483 35,000  Level FlightAware
08:14AM 53.3760 -13.7940 242° Southwest 420 483 35,000  Level FlightAware
08:15AM 53.3410 -13.9060 242° Southwest 420 483 35,000  Level FlightAware
08:16AM 53.3060 -14.0190 243° Southwest 420 483 35,000  Level FlightAware
08:16AM 53.2780 -14.1070 242° Southwest 420 483 35,000  Level FlightAware
08:17AM 53.2410 -14.2240 242° Southwest 420 483 35,000  Level FlightAware
08:18AM 53.2130 -14.3110 242° Southwest 420 483 35,000  Level FlightAware
08:18AM 53.1750 -14.4280 242° Southwest 420 483 35,000  Level FlightAware
08:19AM 53.1480 -14.5160 243° Southwest 420 483 35,000  Level FlightAware
08:20AM 53.1100 -14.6320 241° Southwest 420 483 35,000  Level FlightAware
08:20AM 53.0820 -14.7200 242° Southwest 420 483 35,000  Level FlightAware
08:21AM 53.0450 -14.8360 242° Southwest 420 483 35,000  Level FlightAware
08:22AM 53.0170 -14.9240 242° Southwest 420 483 35,000  Level FlightAware
08:23AM 52.9800 -15.0400 242° Southwest 420 483 35,000  Level FlightAware
08:23AM 52.9520 -15.1270 242° Southwest 420 483 35,000  Level FlightAware
08:24AM 52.9240 -15.2140 242° Southwest 420 483 35,000  Level FlightAware
08:25AM 52.8870 -15.3300 242° Southwest 420 483 35,000  Level FlightAware
08:27AM 52.9130 -15.6839 277° West  Level Estimated
08:28AM 52.9267 -15.8771 277° West  Level Estimated
08:29AM 52.9401 -16.0705 277° West  Level Estimated
08:30AM 52.9532 -16.2640 276° West  Level Estimated
08:31AM 52.9660 -16.4575 276° West  Level Estimated
08:32AM 52.9784 -16.6512 276° West  Level Estimated
08:33AM 52.9906 -16.8450 276° West  Level Estimated
08:34AM 53.0024 -17.0389 276° West  Level Estimated
08:35AM 53.0139 -17.2330 276° West  Level Estimated
08:36AM 53.0255 -17.4341 276° West  Level Estimated
08:37AM 53.0368 -17.6353 275° West  Level Estimated
08:38AM 53.0477 -17.8366 275° West  Level Estimated
08:39AM 53.0583 -18.0380 275° West  Level Estimated
08:40AM 53.0685 -18.2395 275° West  Level Estimated
08:41AM 53.0784 -18.4411 275° West  Level Estimated
08:42AM 53.0880 -18.6428 275° West  Level Estimated
08:43AM 53.0972 -18.8445 274° West  Level Estimated
08:44AM 53.1061 -19.0464 274° West  Level Estimated
08:45AM 53.1146 -19.2484 274° West  Level Estimated
08:46AM 53.1228 -19.4504 274° West  Level Estimated
08:47AM 53.1307 -19.6525 274° West  Level Estimated
08:48AM 53.1382 -19.8546 274° West  Level Estimated
08:48AM 52.0000 -20.0000 292° West 447 514 35,000  Level ETMS Enhanced Traffic Management System
08:49AM 53.1453 -20.0569 273° West  Level Estimated
08:50AM 53.1522 -20.2592 273° West  Level Estimated
08:50AM 52.0000 -20.0000 265° West 444 511 35,000  Level ETMS Enhanced Traffic Management System
08:51AM 53.1586 -20.4616 273° West  Level Estimated
08:52AM 53.1648 -20.6640 273° West  Level Estimated
08:53AM 53.1706 -20.8665 273° West  Level Estimated
08:54AM 52.3232 -21.3160 291° West 447 514 35,000  Level FlightAware Transoceanic
08:55AM 52.3681 -21.5056 291° West 447 514 35,000  Level FlightAware Transoceanic
08:56AM 51.8859 -21.7939 263° West 444 511 35,000  Level FlightAware Transoceanic
08:57AM 51.8715 -21.9927 263° West 444 511 35,000  Level FlightAware Transoceanic
08:58AM 51.8568 -22.1913 263° West 444 511 35,000  Level FlightAware Transoceanic
08:59AM 51.8418 -22.3898 263° West 444 511 35,000  Level FlightAware Transoceanic
09:00AM 51.8264 -22.5881 263° West 444 511 35,000  Level FlightAware Transoceanic
09:01AM 51.8107 -22.7863 263° West 444 511 35,000  Level FlightAware Transoceanic
09:02AM 51.7947 -22.9844 262° West 444 511 35,000  Level FlightAware Transoceanic
09:03AM 51.7783 -23.1823 262° West 444 511 35,000  Level FlightAware Transoceanic
09:04AM 51.7616 -23.3801 262° West 444 511 35,000  Level FlightAware Transoceanic
09:05AM 51.7446 -23.5777 262° West 444 511 35,000  Level FlightAware Transoceanic
09:06AM 51.7272 -23.7752 262° West 444 511 35,000  Level FlightAware Transoceanic
09:07AM 51.7095 -23.9725 262° West 444 511 35,000  Level FlightAware Transoceanic
09:08AM 51.6915 -24.1697 262° West 444 511 35,000  Level FlightAware Transoceanic
09:09AM 51.6732 -24.3667 261° West 444 511 35,000  Level FlightAware Transoceanic
09:10AM 51.6545 -24.5636 261° West 444 511 35,000  Level FlightAware Transoceanic
09:11AM 51.6355 -24.7603 261° West 444 511 35,000  Level FlightAware Transoceanic
09:12AM 51.6161 -24.9568 261° West 444 511 35,000  Level FlightAware Transoceanic
09:13AM 51.5965 -25.1532 261° West 444 511 35,000  Level FlightAware Transoceanic
09:14AM 51.5765 -25.3493 261° West 444 511 35,000  Level FlightAware Transoceanic
09:15AM 51.5562 -25.5453 260° West 444 511 35,000  Level FlightAware Transoceanic
09:16AM 51.5355 -25.7412 260° West 444 511 35,000  Level FlightAware Transoceanic
09:17AM 51.5146 -25.9368 260° West 444 511 35,000  Level FlightAware Transoceanic
09:18AM 51.4933 -26.1323 260° West 444 511 35,000  Level FlightAware Transoceanic
09:19AM 51.4717 -26.3276 260° West 444 511 35,000  Level FlightAware Transoceanic
09:20AM 51.4497 -26.5227 260° West 444 511 35,000  Level FlightAware Transoceanic
09:21AM 51.4274 -26.7176 260° West 444 511 35,000  Level FlightAware Transoceanic
09:22AM 51.4049 -26.9123 259° West 444 511 35,000  Level FlightAware Transoceanic
09:23AM 51.3819 -27.1069 259° West 444 511 35,000  Level FlightAware Transoceanic
09:24AM 51.3587 -27.3012 259° West 444 511 35,000  Level FlightAware Transoceanic
09:25AM 51.3352 -27.4953 259° West 444 511 35,000  Level FlightAware Transoceanic
09:26AM 51.3113 -27.6893 259° West 444 511 35,000  Level FlightAware Transoceanic
09:27AM 51.2871 -27.8830 259° West 444 511 35,000  Level FlightAware Transoceanic
09:28AM 51.2626 -28.0765 258° West 444 511 35,000  Level FlightAware Transoceanic
09:29AM 51.2377 -28.2698 258° West 444 511 35,000  Level FlightAware Transoceanic
09:30AM 51.2126 -28.4630 258° West 444 511 35,000  Level FlightAware Transoceanic
09:31AM 51.1871 -28.6558 258° West 444 511 35,000  Level FlightAware Transoceanic
09:32AM 51.1613 -28.8485 258° West 444 511 35,000  Level FlightAware Transoceanic
09:33AM 51.1352 -29.0410 258° West 444 511 35,000  Level FlightAware Transoceanic
09:34AM 51.1088 -29.2332 258° West 444 511 35,000  Level FlightAware Transoceanic
09:35AM 51.0821 -29.4253 257° West 444 511 35,000  Level FlightAware Transoceanic
09:36AM 51.0550 -29.6171 257° West 444 511 35,000  Level FlightAware Transoceanic
09:37AM 51.0277 -29.8086 257° West 444 511 35,000  Level FlightAware Transoceanic
09:38AM 51.0001 -29.9991 257° West  Level FlightAware Approximate
09:39AM 50.9725 -30.1894 257° West  Level FlightAware Approximate
09:40AM 50.9713 -30.1880 256° West  Level FlightAware Approximate
09:40AM 51.0000 -30.0000 257° West 417 480 35,000  Level ETMS Enhanced Traffic Management System
09:41AM 50.9421 -30.3776 256° West  Level FlightAware Approximate
09:42AM 50.9125 -30.5669 256° West  Level FlightAware Approximate
09:43AM 50.8827 -30.7560 256° West  Level FlightAware Approximate
09:44AM 50.8525 -30.9449 256° West  Level FlightAware Approximate
09:45AM 50.8220 -31.1334 256° West  Level FlightAware Approximate
09:46AM 50.8051 -31.2495 256° West 417 480 35,000  Level FlightAware Transoceanic
09:47AM 50.7762 -31.4271 255° West 417 480 35,000  Level FlightAware Transoceanic
09:48AM 50.7470 -31.6045 255° West 417 480 35,000  Level FlightAware Transoceanic
09:49AM 50.7175 -31.7817 255° West 417 480 35,000  Level FlightAware Transoceanic
09:50AM 50.6878 -31.9587 255° West 417 480 35,000  Level FlightAware Transoceanic
09:51AM 50.6578 -32.1354 255° West 417 480 35,000  Level FlightAware Transoceanic
09:52AM 50.6275 -32.3120 255° West 417 480 35,000  Level FlightAware Transoceanic
09:53AM 50.5970 -32.4883 255° West 417 480 35,000  Level FlightAware Transoceanic
09:54AM 50.5662 -32.6643 255° West 417 480 35,000  Level FlightAware Transoceanic
09:55AM 50.5351 -32.8401 254° West 417 480 35,000  Level FlightAware Transoceanic
09:56AM 50.5038 -33.0157 254° West 417 480 35,000  Level FlightAware Transoceanic
09:57AM 50.4722 -33.1911 254° West 417 480 35,000  Level FlightAware Transoceanic
09:58AM 50.4404 -33.3662 254° West 417 480 35,000  Level FlightAware Transoceanic
09:59AM 50.4082 -33.5411 254° West 417 480 35,000  Level FlightAware Transoceanic
10:00AM 50.3759 -33.7158 254° West 417 480 35,000  Level FlightAware Transoceanic
10:01AM 50.3432 -33.8902 254° West 417 480 35,000  Level FlightAware Transoceanic
10:02AM 50.3103 -34.0644 253° West 417 480 35,000  Level FlightAware Transoceanic
10:03AM 50.2772 -34.2383 253° West 417 480 35,000  Level FlightAware Transoceanic
10:04AM 50.2437 -34.4120 253° West 417 480 35,000  Level FlightAware Transoceanic
10:05AM 50.2101 -34.5854 253° West 417 480 35,000  Level FlightAware Transoceanic
10:06AM 50.1761 -34.7586 253° West 417 480 35,000  Level FlightAware Transoceanic
10:07AM 50.1419 -34.9316 253° West 417 480 35,000  Level FlightAware Transoceanic
10:08AM 50.1075 -35.1043 253° West 417 480 35,000  Level FlightAware Transoceanic
10:09AM 50.0728 -35.2767 253° West 417 480 35,000  Level FlightAware Transoceanic
10:10AM 50.0378 -35.4489 252° West 417 480 35,000  Level FlightAware Transoceanic
10:11AM 50.0026 -35.6209 252° West 417 480 35,000  Level FlightAware Transoceanic
10:12AM 49.9671 -35.7926 252° West 417 480 35,000  Level FlightAware Transoceanic
10:13AM 49.9314 -35.9640 252° West 417 480 35,000  Level FlightAware Transoceanic
10:14AM 49.8954 -36.1352 252° West 417 480 35,000  Level FlightAware Transoceanic
10:15AM 49.8592 -36.3062 252° West 417 480 35,000  Level FlightAware Transoceanic
10:16AM 49.8227 -36.4768 252° West 417 480 35,000  Level FlightAware Transoceanic
10:17AM 49.7860 -36.6473 251° West 417 480 35,000  Level FlightAware Transoceanic
10:18AM 49.7490 -36.8174 251° West 417 480 35,000  Level FlightAware Transoceanic
10:19AM 49.7118 -36.9873 251° West 417 480 35,000  Level FlightAware Transoceanic
10:20AM 49.6743 -37.1570 251° West 417 480 35,000  Level FlightAware Transoceanic
10:21AM 49.6366 -37.3263 251° West 417 480 35,000  Level FlightAware Transoceanic
10:22AM 49.5986 -37.4954 251° West 417 480 35,000  Level FlightAware Transoceanic
10:23AM 49.5604 -37.6643 251° West 417 480 35,000  Level FlightAware Transoceanic
10:24AM 49.5220 -37.8329 251° West 417 480 35,000  Level FlightAware Transoceanic
10:25AM 49.4833 -38.0012 250° West 417 480 35,000  Level FlightAware Transoceanic
10:26AM 49.4443 -38.1693 250° West 417 480 35,000  Level FlightAware Transoceanic
10:27AM 49.4051 -38.3370 250° West 417 480 35,000  Level FlightAware Transoceanic
10:28AM 49.3657 -38.5046 250° West 417 480 35,000  Level FlightAware Transoceanic
10:29AM 49.3260 -38.6718 250° West 417 480 35,000  Level FlightAware Transoceanic
10:30AM 49.2861 -38.8388 250° West 417 480 35,000  Level FlightAware Transoceanic
10:31AM 49.2459 -39.0055 250° West 417 480 35,000  Level FlightAware Transoceanic
10:32AM 49.2055 -39.1719 250° West 417 480 35,000  Level FlightAware Transoceanic
10:33AM 49.1649 -39.3381 249° West 417 480 35,000  Level FlightAware Transoceanic
10:34AM 49.1240 -39.5040 249° West 417 480 35,000  Level FlightAware Transoceanic
10:35AM 49.0829 -39.6696 249° West 417 480 35,000  Level FlightAware Transoceanic
10:36AM 49.0416 -39.8349 249° West 417 480 35,000  Level FlightAware Transoceanic
10:37AM 48.9975 -40.0099 249° West  Level FlightAware Approximate
10:38AM 48.9966 -40.0207 256° West  Level FlightAware Approximate
10:39AM 48.9669 -40.2024 256° West  Level FlightAware Approximate
10:40AM 48.9369 -40.3840 256° West  Level FlightAware Approximate
10:41AM 48.9066 -40.5653 256° West  Level FlightAware Approximate
10:42AM 48.8759 -40.7464 256° West  Level FlightAware Approximate
10:42AM 49.0000 -40.0000 257° West 433 498 35,000  Level ETMS Enhanced Traffic Management System
10:43AM 48.8451 -40.9273 256° West  Level FlightAware Approximate
10:44AM 48.8139 -41.1079 255° West  Level FlightAware Approximate
10:45AM 48.7825 -41.2884 256° West  Level FlightAware Approximate
10:46AM 48.7533 -41.4696 256° West  Level FlightAware Approximate
10:47AM 48.7237 -41.6505 256° West  Level FlightAware Approximate
10:48AM 48.6884 -41.9544 256° West 433 498 35,000  Level FlightAware Transoceanic
10:49AM 48.6585 -42.1309 256° West 433 498 35,000  Level FlightAware Transoceanic
10:50AM 48.6283 -42.3071 255° West 433 498 35,000  Level FlightAware Transoceanic
10:51AM 48.5978 -42.4831 255° West 433 498 35,000  Level FlightAware Transoceanic
10:52AM 48.5670 -42.6589 255° West 433 498 35,000  Level FlightAware Transoceanic
10:53AM 48.5360 -42.8345 255° West 433 498 35,000  Level FlightAware Transoceanic
10:54AM 48.5047 -43.0099 255° West 433 498 35,000  Level FlightAware Transoceanic
10:55AM 48.4731 -43.1851 255° West 433 498 35,000  Level FlightAware Transoceanic
10:56AM 48.4413 -43.3600 255° West 433 498 35,000  Level FlightAware Transoceanic
10:57AM 48.4092 -43.5348 254° West 433 498 35,000  Level FlightAware Transoceanic
10:58AM 48.3768 -43.7093 254° West 433 498 35,000  Level FlightAware Transoceanic
10:59AM 48.3442 -43.8835 254° West 433 498 35,000  Level FlightAware Transoceanic
11:00AM 48.3113 -44.0576 254° West 433 498 35,000  Level FlightAware Transoceanic
11:01AM 48.2782 -44.2314 254° West 433 498 35,000  Level FlightAware Transoceanic
11:02AM 48.2448 -44.4050 254° West 433 498 35,000  Level FlightAware Transoceanic
11:03AM 48.2111 -44.5784 254° West 433 498 35,000  Level FlightAware Transoceanic
11:04AM 48.1772 -44.7516 254° West 433 498 35,000  Level FlightAware Transoceanic
11:05AM 48.1430 -44.9245 253° West 433 498 35,000  Level FlightAware Transoceanic
11:06AM 48.1086 -45.0972 253° West 433 498 35,000  Level FlightAware Transoceanic
11:07AM 48.0739 -45.2696 253° West 433 498 35,000  Level FlightAware Transoceanic
11:08AM 48.0389 -45.4419 253° West 433 498 35,000  Level FlightAware Transoceanic
11:09AM 48.0037 -45.6138 253° West 433 498 35,000  Level FlightAware Transoceanic
11:10AM 47.9682 -45.7856 253° West 433 498 35,000  Level FlightAware Transoceanic
11:11AM 47.9325 -45.9571 253° West 433 498 35,000  Level FlightAware Transoceanic
11:12AM 47.8965 -46.1284 253° West 433 498 35,000  Level FlightAware Transoceanic
11:13AM 47.8602 -46.2994 252° West 433 498 35,000  Level FlightAware Transoceanic
11:14AM 47.8237 -46.4702 252° West 433 498 35,000  Level FlightAware Transoceanic
11:15AM 47.7870 -46.6408 252° West 433 498 35,000  Level FlightAware Transoceanic
11:16AM 47.7500 -46.8111 252° West 433 498 35,000  Level FlightAware Transoceanic
11:17AM 47.7127 -46.9812 252° West 433 498 35,000  Level FlightAware Transoceanic
11:18AM 47.6753 -47.1510 252° West 433 498 35,000  Level FlightAware Transoceanic
11:19AM 47.6375 -47.3206 252° West 433 498 35,000  Level FlightAware Transoceanic
11:20AM 47.5995 -47.4900 252° West 433 498 35,000  Level FlightAware Transoceanic
11:21AM 47.5612 -47.6590 251° West 433 498 35,000  Level FlightAware Transoceanic
11:22AM 47.5228 -47.8279 251° West 433 498 35,000  Level FlightAware Transoceanic
11:23AM 47.4840 -47.9965 251° West 433 498 35,000  Level FlightAware Transoceanic
11:24AM 47.4450 -48.1648 251° West 433 498 35,000  Level FlightAware Transoceanic
11:25AM 47.4058 -48.3330 251° West 433 498 35,000  Level FlightAware Transoceanic
11:26AM 47.3663 -48.5008 251° West 433 498 35,000  Level FlightAware Transoceanic
11:27AM 47.3265 -48.6684 251° West 433 498 35,000  Level FlightAware Transoceanic
11:28AM 47.2866 -48.8357 251° West 433 498 35,000  Level FlightAware Transoceanic
11:29AM 47.2464 -49.0028 250° West 433 498 35,000  Level FlightAware Transoceanic
11:30AM 47.2059 -49.1697 250° West 433 498 35,000  Level FlightAware Transoceanic
11:30AM 47.1510 -49.4070 250° West 452 520 35,000  Level FlightAware
11:31AM 47.1652 -49.3362 250° West 433 498 35,000  Level FlightAware Transoceanic
11:31AM 47.1180 -49.5380 250° West 451 519 35,000  Level FlightAware
11:31AM 47.0920 -49.6450 250° West 450 518 35,000  Level FlightAware
11:32AM 47.0620 -49.7620 249° West 449 517 35,000  Level FlightAware
11:33AM 47.0360 -49.8700 251° West 449 517 35,000  Level FlightAware
11:34AM 47.0070 -49.9870 250° West 449 517 35,000  Level FlightAware
11:34AM 46.9840 -50.0790 250° West 449 517 35,000  Level FlightAware
11:34AM 47.0000 -50.0000 259° West 499 574 35,000  Level ETMS Enhanced Traffic Management System
11:35AM 46.9620 -50.1670 250° West 449 517 35,000  Level FlightAware
11:36AM 46.9330 -50.2830 250° West 449 517 35,000  Level FlightAware
11:36AM 46.9190 -50.3420 251° West 449 517 35,000  Level FlightAware
11:37AM 46.8900 -50.4580 250° West 449 517 35,000  Level FlightAware
11:37AM 46.8670 -50.5480 250° West 449 517 35,000  Level FlightAware
11:38AM 46.8390 -50.6600 250° West 449 517 35,000  Level FlightAware
11:39AM 46.8740 -50.9670 280° West 451 519 35,000  Level FlightAware
11:39AM 46.8580 -51.0700 257° West 452 520 35,000  Level FlightAware
11:40AM 46.8400 -51.1910 259° West 452 520 35,000  Level FlightAware
11:41AM 46.8220 -51.3120 258° West 452 520 35,000  Level FlightAware
11:42AM 46.7990 -51.4620 257° West 452 520 35,000  Level FlightAware
11:42AM 46.7800 -51.5790 257° West 453 521 35,000  Level FlightAware
11:43AM 46.7620 -51.6970 257° West 453 521 35,000  Level FlightAware
11:44AM 46.7430 -51.8170 257° West 453 521 35,000  Level FlightAware
11:44AM 46.7220 -51.9510 257° West 454 522 35,000  Level FlightAware
11:45AM 46.7010 -52.0800 257° West 455 524 35,000  Level FlightAware
11:46AM 46.6800 -52.2100 257° West 456 525 35,000  Level FlightAware
11:46AM 46.6600 -52.3280 256° West 458 527 35,000  Level FlightAware
11:47AM 46.6390 -52.4580 257° West 460 529 35,000  Level FlightAware
11:48AM 46.6150 -52.6060 257° West 463 533 35,000  Level FlightAware
11:49AM 46.5950 -52.7220 256° West 465 535 35,000  Level FlightAware
11:49AM 46.5730 -52.8570 257° West 467 537 35,000  Level FlightAware
11:50AM 46.5530 -52.9720 256° West 470 541 35,000  Level FlightAware
11:51AM 46.5290 -53.1120 256° West 473 544 35,000  Level FlightAware
11:51AM 46.5070 -53.2410 256° West 477 549 35,000  Level FlightAware
11:52AM 46.4830 -53.3770 256° West 478 550 35,000  Level FlightAware
11:53AM 46.4610 -53.5030 256° West 479 551 35,000  Level FlightAware
11:54AM 46.4400 -53.6260 256° West 479 551 35,000  Level FlightAware
11:54AM 46.4170 -53.7550 256° West 481 554 35,000  Level FlightAware
11:55AM 46.3910 -53.9020 256° West 480 552 35,000  Level FlightAware
11:56AM 46.3680 -54.0250 255° West 480 552 35,000  Level FlightAware
11:56AM 46.3460 -54.1510 256° West 478 550 35,000  Level FlightAware
11:57AM 46.3270 -54.2550 255° West 475 547 35,000  Level FlightAware
11:58AM 46.3050 -54.3750 255° West 474 545 35,000  Level FlightAware
11:58AM 46.2790 -54.5140 255° West 472 543 35,000  Level FlightAware
11:59AM 46.2560 -54.6400 255° West 471 542 35,000  Level FlightAware
12:00PM 46.2330 -54.7600 255° West 470 541 35,000  Level FlightAware
12:00PM 46.2080 -54.8940 255° West 470 541 35,000  Level FlightAware
12:01PM 46.1850 -55.0160 255° West 470 541 35,000  Level FlightAware
12:02PM 46.1620 -55.1370 255° West 470 541 35,000  Level FlightAware
12:02PM 46.1390 -55.2540 254° West 471 542 35,000  Level FlightAware
12:03PM 46.1150 -55.3770 254° West 471 542 35,000  Level FlightAware
12:04PM 46.0930 -55.4950 255° West 472 543 35,000  Level FlightAware
12:05PM 46.0670 -55.6250 254° West 472 543 35,000  Level FlightAware
12:06PM 46.0300 -55.8140 254° West 472 543 35,000  Level FlightAware
12:06PM 45.9970 -55.9800 254° West 470 541 35,000  Level FlightAware
12:07PM 45.9760 -56.0850 254° West 469 540 35,000  Level FlightAware
12:08PM 45.9520 -56.2050 254° West 467 537 35,000  Level FlightAware
12:08PM 45.9320 -56.2990 253° West 467 537 35,000  Level FlightAware
12:09PM 45.9050 -56.4310 254° West 466 536 35,000  Level FlightAware
12:10PM 45.8860 -56.5220 253° West 466 536 35,000  Level FlightAware
12:11PM 45.8200 -56.8400 254° West 467 537 35,000  Level FlightAware
12:12PM 45.7940 -56.9610 253° West 467 537 35,000  Level FlightAware
12:13PM 45.7590 -57.1380 254° West 467 537 35,000  Level FlightAware
12:14PM 45.7300 -57.2750 253° West 467 537 35,000  Level FlightAware
12:14PM 45.7100 -57.3660 253° West 467 537 35,000  Level FlightAware
12:17PM 45.6360 -57.7040 253° West 466 536 35,000  Level FlightAware
12:17PM 45.6090 -57.8350 254° West 465 535 35,000  Level FlightAware
12:18PM 45.5700 -58.0140 253° West 465 535 35,000  Level FlightAware
12:19PM 45.5430 -58.1340 252° West 464 534 35,000  Level FlightAware
12:19PM 45.5170 -58.2510 252° West 463 533 35,000  Level FlightAware
12:20PM 45.4900 -58.3730 253° West 462 532 35,000  Level FlightAware
12:21PM 45.4610 -58.5010 252° West 462 532 35,000  Level FlightAware
12:21PM 45.4360 -58.6140 253° West 462 532 35,000  Level FlightAware
12:22PM 45.4070 -58.7430 252° West 462 532 35,000  Level FlightAware
12:23PM 45.3800 -58.8590 252° West 461 531 35,000  Level FlightAware
12:23PM 45.3570 -58.9610 252° West 460 529 35,000  Level FlightAware
12:24PM 45.3330 -59.0650 252° West 460 529 35,000  Level FlightAware
12:25PM 45.3060 -59.1810 252° West 461 531 35,000  Level FlightAware
12:25PM 45.2820 -59.2840 252° West 461 531 35,000  Level FlightAware
12:26PM 45.2540 -59.4030 252° West 459 528 35,000  Level FlightAware
12:27PM 45.2250 -59.5280 252° West 459 528 35,000  Level FlightAware
12:27PM 45.2030 -59.6200 251° West 459 528 35,000  Level FlightAware
12:28PM 45.1730 -59.7450 251° West 460 529 35,000  Level FlightAware
12:29PM 45.1450 -59.8650 252° West 462 532 35,000  Level FlightAware
12:29PM 45.1220 -59.9610 251° West 461 531 35,000  Level FlightAware
12:29PM 45.1130 -59.9970 251° West 462 532 35,000  Level FlightAware
12:32PM 44.9970 -60.4730 251° West 463 533 35,000  Level FlightAware
12:33PM 44.9580 -60.6340 251° West 463 533 35,000  Level FlightAware
12:34PM 44.9280 -60.7550 251° West 463 533 35,000  Level FlightAware
12:34PM 44.9020 -60.8580 250° West 463 533 35,000  Level FlightAware
12:35PM 44.8610 -61.0210 251° West 464 534 35,000  Level FlightAware
12:36PM 44.8380 -61.1080 250° West 464 534 35,000  Level FlightAware
12:37PM 44.7860 -61.3110 250° West 464 534 35,000  Level FlightAware
12:38PM 44.7630 -61.4000 250° West 464 534 35,000  Level FlightAware
12:39PM 44.7390 -61.4920 250° West 464 534 35,000  Level FlightAware
12:40PM 44.7090 -61.6080 250° West 464 534 35,000  Level FlightAware
12:40PM 44.6800 -61.7190 250° West 464 534 35,000  Level FlightAware
12:41PM 44.6580 -61.8060 250° West 464 534 35,000  Level FlightAware
12:42PM 44.6280 -61.9210 250° West 464 534 35,000  Level FlightAware
12:42PM 44.6050 -62.0080 250° West 464 534 35,000  Level FlightAware
12:43PM 44.5820 -62.0990 250° West 464 534 35,000  Level FlightAware
12:44PM 44.5520 -62.2150 250° West 464 534 35,000  Level FlightAware
12:45PM 44.4490 -62.6070 250° West 472 543 35,000  Level FlightAware
12:46PM 44.3720 -62.8880 249° West 475 547 35,000  Level FlightAware
12:47PM 44.3370 -63.0160 249° West 475 547 35,000  Level FlightAware
12:48PM 44.3070 -63.1260 249° West 475 547 35,000  Level FlightAware
12:48PM 44.2750 -63.2440 249° West 477 549 35,000  Level FlightAware
12:49PM 44.2400 -63.3690 249° West 477 549 35,000  Level FlightAware
12:50PM 44.2060 -63.4910 249° West 478 550 35,000  Level FlightAware
12:51PM 44.1700 -63.6180 248° West 479 551 35,000  Level FlightAware
12:51PM 44.1380 -63.7320 249° West 480 552 35,000  Level FlightAware
12:52PM 44.1060 -63.8470 249° West 480 552 35,000  Level FlightAware
12:53PM 44.0700 -63.9730 248° West 482 555 35,000  Level FlightAware
12:53PM 44.0350 -64.0950 248° West 483 556 35,000  Level FlightAware
12:54PM 44.0010 -64.2140 248° West 483 556 35,000  Level FlightAware
12:55PM 43.9670 -64.3320 248° West 483 556 35,000  Level FlightAware
12:56PM 43.9220 -64.4880 248° West 485 558 35,000  Level FlightAware
12:56PM 43.8850 -64.6160 248° West 485 558 35,000  Level FlightAware
12:57PM 43.8450 -64.7510 248° West 482 555 35,000  Level FlightAware
12:58PM 43.8110 -64.8660 248° West 484 557 35,000  Level FlightAware
12:58PM 43.7770 -64.9830 248° West 484 557 35,000  Level FlightAware
12:59PM 43.7420 -65.1000 248° West 484 557 35,000  Level FlightAware
01:00PM 43.7040 -65.2270 248° West 486 559 35,000  Level FlightAware
01:00PM 43.6730 -65.3300 247° West 486 559 35,000  Level FlightAware
01:01PM 43.6340 -65.4590 247° West 487 560 35,000  Level FlightAware
01:02PM 43.5990 -65.5760 248° West 486 559 35,000  Level FlightAware
01:03PM 43.5560 -65.7190 248° West 486 559 35,000  Level FlightAware
01:03PM 43.5200 -65.8350 247° West 487 560 35,000  Level FlightAware
01:04PM 43.4850 -65.9480 247° West 486 559 35,000  Level FlightAware
01:05PM 43.4500 -66.0610 247° West 487 560 35,000  Level FlightAware
01:05PM 43.4100 -66.1910 247° West 487 560 35,000  Level FlightAware
01:06PM 43.3750 -66.3050 247° West 486 559 35,000  Level FlightAware
01:07PM 43.3430 -66.4050 246° West 486 559 35,000  Level FlightAware
01:08PM 43.3070 -66.5150 246° West 486 559 35,000  Level FlightAware
01:08PM 43.2790 -66.6020 246° West 486 559 35,000  Level FlightAware
01:09PM 43.2150 -66.8100 247° West 484 557 35,000  Level FlightAware
01:10PM 43.1860 -66.8990 246° West 484 557 35,000  Level FlightAware
01:11PM 43.1230 -67.1460 251° West 483 556 35,000  Level FlightAware
01:12PM 43.1060 -67.2460 257° West 484 557 35,000  Level FlightAware
01:13PM 43.0890 -67.3370 256° West 484 557 35,000  Level FlightAware
01:13PM 43.0490 -67.5630 256° West 483 556 35,000  Level FlightAware
01:14PM 43.0310 -67.6590 256° West 483 556 35,000  Level FlightAware
01:15PM 43.0080 -67.7830 256° West 35,000  Level FlightAware
01:16PM 42.9680 -67.9940 256° West 473 544 35,000  Level FlightAware
01:17PM 42.9370 -68.1590 256° West 472 543 35,000  Level FlightAware
01:17PM 42.9150 -68.2730 255° West 471 542 35,000  Level FlightAware
01:18PM 42.8930 -68.3870 255° West 471 542 35,000  Level FlightAware
01:19PM 42.8680 -68.5170 255° West 470 541 35,000  Level FlightAware
01:20PM 42.8480 -68.6200 255° West 468 539 35,000  Level FlightAware
01:20PM 42.8220 -68.7500 255° West 466 536 35,000  Level FlightAware
01:21PM 42.8210 -68.9150 270° West 462 532 35,000  Level FlightAware
01:22PM 42.8390 -69.0370 281° West 461 531 35,000  Level FlightAware
01:23PM 42.8570 -69.1530 282° West 460 529 35,000  Level FlightAware
01:23PM 42.8690 -69.2680 278° West 464 534 35,000  Level FlightAware
01:24PM 42.8480 -69.3950 257° West 461 531 35,000  Level FlightAware
01:25PM 42.8120 -69.5180 248° West 461 531 35,000  Level FlightAware
01:25PM 42.7810 -69.6240 248° West 473 544 35,000  Level FlightAware
01:26PM 42.7470 -69.7370 248° West 478 550 35,000  Level FlightAware
01:27PM 42.7140 -69.8470 248° West 479 551 35,000  Level FlightAware
01:27PM 42.6800 -69.9590 248° West 479 551 35,000 -180 Level FlightAware
01:28PM 42.6460 -70.0710 248° West 479 551 34,800 -1,380 Descending FlightAware
01:29PM 42.6120 -70.1840 248° West 482 555 33,200 -2,760 Descending FlightAware
01:30PM 42.5730 -70.3100 247° West 486 559 30,900 -2,760 Descending FlightAware
01:30PM 42.5380 -70.4230 247° West 481 554 29,300 -1,980 Descending FlightAware
01:31PM 42.5000 -70.5450 247° West 472 543 28,100 -960 Descending FlightAware
01:32PM 42.4550 -70.6460 239° Southwest 469 540 28,000 -240 Descending FlightAware
01:32PM 42.3900 -70.7250 222° Southwest 471 542 27,800 -900 Descending FlightAware
01:33PM 42.3100 -70.8200 221° Southwest 461 531 26,700 -1,620 Descending FlightAware
01:34PM 42.2640 -70.9110 236° Southwest 448 516 25,400 -1,980 Descending FlightAware
01:34PM 42.2730 -71.0200 276° West 430 495 24,100 -1,080 Descending FlightAware
01:35PM 42.3170 -71.1050 305° West 425 489 24,000 -120 Descending FlightAware
01:36PM 42.3210 -71.2140 273° West 437 503 24,000 -300 Level FlightAware
01:36PM 42.2990 -71.3070 252° West 431 496 23,600 -900 Descending FlightAware
01:37PM 42.2700 -71.4180 251° West 423 487 22,800 -1,380 Descending FlightAware
01:38PM 42.2440 -71.5230 252° West 425 489 21,800 -1,320 Descending FlightAware
01:38PM 42.2200 -71.6160 251° West 423 487 21,100 -1,080 Descending FlightAware
01:39PM 42.1950 -71.7170 252° West 416 479 20,400 -1,020 Descending FlightAware
01:40PM 42.1710 -71.8120 251° West 410 472 19,800 -960 Descending FlightAware
01:41PM 42.1400 -71.9300 251° West 401 461 19,000 -960 Descending FlightAware
01:41PM 42.1170 -72.0220 251° West 399 459 18,400 -480 Descending FlightAware
01:42PM 42.0960 -72.1000 250° West 399 459 18,400  Level FlightAware
01:43PM 42.0630 -72.2190 250° West 399 459 18,400  Level FlightAware
01:43PM 42.0440 -72.2900 250° West 399 459 18,400  Level FlightAware
01:44PM 42.0180 -72.3880 250° West 399 459 18,400  Level FlightAware
01:45PM 42.0000 -72.4550 250° West 399 459 18,400 -2,280 Level FlightAware
01:45PM 41.9856 -72.5211 250° West 385 443 16,000 -1,620 Descending Boston Center
01:46PM 41.9481 -72.6689 251° West 390 449 16,000 -60 Level Boston Center
01:53PM 41.7280 -73.5670 251° West 377 434 15,700 -180 Descending FlightAware
01:53PM 41.7020 -73.6700 251° West 372 428 14,800 -1,320 Descending FlightAware
01:54PM 41.6790 -73.7630 252° West 367 422 13,800 -1,320 Descending FlightAware
01:55PM 41.6600 -73.8390 252° West 363 418 13,100 -1,200 Descending FlightAware
01:55PM 41.6410 -73.9160 252° West 358 412 12,400 -1,200 Descending FlightAware
01:56PM 41.6324 -73.9554 254° West 358 412 12,000 -780 Descending FlightAware ADS-B
01:56PM 41.6150 -74.0280 252° West 357 411 11,700 -900 Descending FlightAware
01:57PM 41.5937 -74.1191 253° West 10,400 -1,020 Descending FlightAware ADS-B
01:58PM 41.5350 -74.2450 238° Southwest 301 346 9,800 -540 Descending FlightAware
01:59PM 41.4950 -74.3000 226° Southwest 293 337 9,400 -420 Descending FlightAware
01:59PM 41.4850 -74.3130 224° Southwest 293 337 9,400  Level FlightAware
02:00PM 41.4650 -74.3390 224° Southwest 293 337 9,400  Level FlightAware
02:00PM 41.4380 -74.3760 226° Southwest 293 337 9,400 -600 Level FlightAware
02:04PM 41.1330 -74.5320 201° Southwest 295 339 6,800 -660 Descending FlightAware
02:04PM 41.1050 -74.5430 196° South 295 339 6,800  Level FlightAware
02:05PM 41.0715 -74.5553 195° South 299 344 6,800 -540 Level FlightAware ADS-B
02:06PM 40.9931 -74.5472 176° South 294 338 6,100 -600 Descending FlightAware ADS-B
02:06PM 40.9370 -74.5500 182° South 287 330 5,800 -360 Descending FlightAware
02:07PM 40.9158 -74.5524 185° South 288 331 5,800  Level FlightAware ADS-B
02:07PM 40.9069 -74.5532 184° South 286 329 5,800  Level FlightAware ADS-B
02:07PM 40.8844 -74.5557 185° South 285 328 5,800 -180 Level FlightAware ADS-B
02:07PM 40.8628 -74.5579 184° South 282 325 5,700 -720 Descending FlightAware ADS-B
02:08PM 40.8384 -74.5605 185° South 282 325 5,400 -1,140 Descending FlightAware ADS-B
02:08PM 40.8269 -74.5616 184° South 282 325 5,200 -1,140 Descending FlightAware ADS-B
02:08PM 40.7972 -74.5648 185° South 279 321 4,800 -480 Descending FlightAware ADS-B
02:09PM 40.7550 -74.5700 185° South 285 328 4,800  Level FlightAware
02:09PM 40.7373 -74.5719 185° South 284 327 4,800  Level FlightAware ADS-B
02:10PM 40.6720 -74.5750 182° South 258 297 4,800  Level FlightAware
02:10PM 40.6520 -74.5730 176° South 244 281 4,800  Level FlightAware
02:11PM 40.5963 -74.5676 176° South 244 281 4,800  Level FlightAware ADS-B
02:11PM 40.5773 -74.5661 177° South 236 272 4,800  Level FlightAware ADS-B
02:11PM 40.5655 -74.5651 176° South 238 274 4,800  Level FlightAware ADS-B
02:12PM 40.5486 -74.5637 176° South 244 281 4,800 -240 Level FlightAware ADS-B
02:12PM 40.5308 -74.5622 176° South 242 278 4,700 -600 Descending FlightAware ADS-B
02:12PM 40.5134 -74.5607 176° South 237 273 4,500 -900 Descending FlightAware ADS-B
02:12PM 40.4939 -74.5589 176° South 235 270 4,200 -1,080 Descending FlightAware ADS-B
02:13PM 40.4771 -74.5573 176° South 234 269 3,900 -720 Descending FlightAware ADS-B
02:13PM 40.4566 -74.5558 177° South 240 276 3,800 -240 Descending FlightAware ADS-B
02:13PM 40.4462 -74.5546 175° South 241 277 3,800 -420 Level FlightAware ADS-B
02:13PM 40.4412 -74.5534 170° South 239 275 3,700 -780 Descending FlightAware ADS-B
02:13PM 40.4370 -74.5518 164° South 240 276 3,700 -780 Level FlightAware ADS-B
02:13PM 40.4324 -74.5486 152° Southeast 238 274 3,600 -960 Descending FlightAware ADS-B
02:14PM 40.4257 -74.5414 141° Southeast 236 272 3,500 -840 Descending FlightAware ADS-B
02:14PM 40.4204 -74.5335 131° Southeast 233 268 3,400 -1,320 Descending FlightAware ADS-B
02:14PM 40.4103 -74.5165 128° Southeast 234 269 3,000 -1,500 Descending FlightAware ADS-B
02:14PM 40.4073 -74.5115 128° Southeast 233 268 2,900 -900 Descending FlightAware ADS-B
02:14PM 40.4005 -74.5002 128° Southeast 235 270 2,800 -240 Descending FlightAware ADS-B
02:14PM 40.3904 -74.4830 128° Southeast 234 269 2,800  Level FlightAware ADS-B
02:15PM 40.3873 -74.4779 129° Southeast 236 272 2,800  Level FlightAware ADS-B
02:15PM 40.3741 -74.4525 124° Southeast 236 272 2,800  Level FlightAware ADS-B
02:15PM 40.3772 -74.4170 83° East 229 264 2,800  Level FlightAware ADS-B
02:15PM 40.3796 -74.4127 54° Northeast 229 264 2,800  Level FlightAware ADS-B
02:16PM 40.4118 -74.3622 50° Northeast 236 272 2,800  Level FlightAware ADS-B
02:17PM 40.4300 -74.3410 42° Northeast 224 258 2,800  Level FlightAware
02:17PM 40.4600 -74.3180 30° Northeast 222 255 2,800  Level FlightAware
02:17PM 40.4754 -74.3083 26° Northeast 210 242 2,800  Level FlightAware ADS-B
02:18PM 40.4978 -74.2944 25° Northeast 196 226 2,800  Level FlightAware ADS-B
02:18PM 40.5123 -74.2856 25° Northeast 192 221 2,800  Level FlightAware ADS-B
02:18PM 40.5248 -74.2778 25° Northeast 191 220 2,800  Level FlightAware ADS-B
02:19PM 40.5351 -74.2709 27° Northeast 192 221 2,800 -300 Level FlightAware ADS-B
02:19PM 40.5416 -74.2667 26° Northeast 194 223 2,700 -900 Descending FlightAware ADS-B
02:19PM 40.5523 -74.2597 26° Northeast 194 223 2,500 -1,140 Descending FlightAware ADS-B
02:19PM 40.5761 -74.2441 26° Northeast 196 226 1,900 -1,140 Descending FlightAware ADS-B
02:20PM 40.5869 -74.2372 26° Northeast 192 221 1,700 -1,020 Descending FlightAware ADS-B
02:20PM 40.6046 -74.2259 26° Northeast 177 204 1,300 -1,020 Descending FlightAware ADS-B
02:20PM 40.6181 -74.2175 25° Northeast 167 192 1,000 -900 Descending FlightAware ADS-B
02:21PM 40.6284 -74.2108 26° Northeast 157 181 800 -780 Descending FlightAware ADS-B
02:21PM 40.6341 -74.2072 26° Northeast 151 174 700 -840 Descending FlightAware ADS-B
02:21PM 40.6469 -74.1989 26° Northeast 140 161 400 -780 Descending FlightAware ADS-B
02:21PM 40.6575 -74.1923 25° Northeast 140 161 200 -540 Descending FlightAware ADS-B
02:22PM 40.6661 -74.1866 27° Northeast 137 158 100 -420 Descending FlightAware ADS-B